Cedar Hill, Texas
Current Conditions -  °F | °C
As of 5:53 PM on Saturday 20 Dec 2014 (Local Time) from KRBD Reporting Station
Overcast Overcast  
Wind Chill: 47°   Ceiling: 1200
Heat Index: 49°   Visibility: 9mi
Dew Point: 42°   Wind: 5mph
Humidity: 77%   Direction: 80°E
Pressure: 30.17"   Gusts: NA
Location:  32.59°N, 96.95°W
Report Text: KRBD 202353Z AUTO 08004KT 9SM OVC012 09/06 A3017 RMK AO2 SLP217 T00940056 10094 20089 56003
Loading
Personal Weather Stations






























Interactive Weather Map New forecast layout! Learn more

10-Day Weather Forecast

Advertisements
Track Severe Weather on mobile